East Weymouth, Massachusetts
Current Conditions -  °F | °C
As of 3:54 AM on Saturday 22 Nov 2014 (Local Time) from KBOS Reporting Station
Few Clouds Few Clouds  
Wind Chill: 17°   Ceiling: Unl
Heat Index: 26°   Visibility: 10mi
Dew Point: 12°   Wind: 9mph
Humidity: 55%   Direction: 260°W
Pressure: 30.42"   Gusts: NA
Location:  42.21°N, 70.9313°W
Report Text: KBOS 220854Z 26008KT 10SM FEW250 M03/M11 A3042 RMK AO2 SLP301 T10331111 58000
Loading
Personal Weather Stations






























Interactive Weather Map New forecast layout! Learn more

10-Day Weather Forecast

Advertisements
Track Severe Weather on mobile